Tacna, Peru
Current Conditions -  °F | °C
As of 1:00 AM on Friday 26 Dec 2014 (Local Time) from SPTN Reporting Station
Overcast Overcast  
Wind Chill: 63°   Ceiling: 2200
Heat Index: 63°   Visibility: 6mi
Dew Point: 57°   Wind: 3mph
Humidity: 82%   Direction: 230°SW
Pressure: 29.88"   Gusts: NA
Location:  18.02°S, 70.25°W
Report Text: SPTN 260600Z 23003KT 9999 OVC022 17/14 Q1012 RMK PP000
Loading
Personal Weather Stations






























Interactive Weather Map New forecast layout! Learn more

10-Day Weather Forecast

Advertisements
Track Severe Weather on mobile